Time;durP1;ratioP1;P1;durP2;ratioP2;P2;SDS_P1;SDS_P2;PMS_P1;PMS_P2;Temp;Humidity;BMP_temperature;BMP_pressure;BME280_temperature;BME280_humidity;BME280_pressure;Samples;Min_cycle;Max_cycle;Signal;HPM_P1;HPM_P2
2021/10/05 00:01:13;;;;;;;;;;;;;;;6.08;67.33;102196.22;4874948;29;20343;-76
2021/10/05 00:03:38;;;;;;;;;;;;;;;6.08;67.19;102204.88;4875096;29;19928;-77
2021/10/05 00:06:04;;;;;;;;;;;;;;;6.03;67.08;102204.66;4861030;29;20102;-79
2021/10/05 00:08:29;;;;;;;;;;;;;;;6.01;66.98;102203.72;4876587;29;20418;-78
2021/10/05 00:10:55;;;;;;;;;;;;;;;5.99;67.25;102201.81;4884720;29;19924;-79
2021/10/05 00:13:21;;;;;;;;;;;;;;;5.93;66.82;102205.00;4897158;29;19912;-77
2021/10/05 00:15:46;;;;;;;;;;;;;;;5.94;66.77;102206.75;4883009;29;19947;-78
2021/10/05 00:18:12;;;;;;;;;;;;;;;5.94;67.35;102209.34;4891260;29;20411;-77
2021/10/05 00:20:37;;;;;;;;;;;;;;;5.94;67.32;102209.34;4874745;29;20887;-79
2021/10/05 00:23:03;;;;;;;;;;;;;;;5.94;66.80;102203.31;4874913;29;20407;-77
2021/10/05 00:25:28;;;;;;;;;;;;;;;5.97;66.88;102206.00;4858216;29;19968;-78
2021/10/05 00:27:54;;;;;;;;;;;;;;;6.01;67.16;102208.88;4866341;29;19924;-76
2021/10/05 00:30:19;;;;;;;;;;;;;;;6.01;67.03;102210.56;4874843;29;19927;-77
2021/10/05 00:32:45;;;;;;;;;;;;;;;6.04;66.99;102210.72;4874069;29;19923;-77
2021/10/05 00:35:10;;;;;;;;;;;;;;;6.09;66.39;102209.25;4874108;29;19927;-77
2021/10/05 00:37:36;;;;;;;;;;;;;;;6.16;66.35;102213.00;4893201;29;19919;-76
2021/10/05 00:40:02;;;;;;;;;;;;;;;6.20;66.68;102209.75;4897844;29;19931;-77
2021/10/05 00:42:28;;;;;;;;;;;;;;;6.24;66.31;102214.25;4893576;29;20394;-76
2021/10/05 00:44:54;;;;;;;;;;;;;;;6.31;66.42;102218.03;4875378;29;19930;-76
2021/10/05 00:47:19;;;;;;;;;;;;;;;6.36;65.98;102220.81;4877112;29;19934;-77
2021/10/05 00:49:46;;;;;;;;;;;;;;;6.42;66.28;102214.22;4877148;29;19930;-77
2021/10/05 00:52:12;;;;;;;;;;;;;;;6.47;65.92;102219.63;4872168;29;19928;-77
2021/10/05 00:54:39;;;;;;;;;;;;;;;6.55;65.91;102207.91;4876939;29;19923;-76
2021/10/05 00:57:05;;;;;;;;;;;;;;;6.62;66.03;102206.53;4877949;29;20285;-77
2021/10/05 00:59:33;;;;;;;;;;;;;;;6.67;66.07;102204.16;4876213;29;19932;-77
2021/10/05 01:01:59;;;;;;;;;;;;;;;6.73;65.52;102207.88;4877834;29;19957;-76
2021/10/05 01:04:25;;;;;;;;;;;;;;;6.80;65.80;102208.19;4877140;29;20320;-76
2021/10/05 01:06:55;;;;;;;;;;;;;;;6.80;65.23;102208.19;4861187;29;19963;-77
2021/10/05 01:09:21;;;;;;;;;;;;;;;6.78;65.41;102205.50;4875430;29;19923;-77
2021/10/05 01:11:46;;;;;;;;;;;;;;;6.82;65.23;102210.00;4876239;29;20273;-77
2021/10/05 01:14:12;;;;;;;;;;;;;;;6.82;65.93;102210.00;4877326;29;19924;-77
2021/10/05 01:16:37;;;;;;;;;;;;;;;6.82;65.20;102209.13;4876910;29;20000;-76
2021/10/05 01:19:03;;;;;;;;;;;;;;;6.76;65.36;102214.88;4876995;29;19928;-77
2021/10/05 01:21:29;;;;;;;;;;;;;;;6.66;65.36;102215.31;4877500;29;20384;-77
2021/10/05 01:24:02;;;;;;;;;;;;;;;6.53;65.20;102211.25;4878102;29;19924;-76
2021/10/05 01:26:28;;;;;;;;;;;;;;;6.45;65.50;102223.84;4880905;29;19932;-76
2021/10/05 01:28:53;;;;;;;;;;;;;;;6.41;65.68;102224.50;4877756;29;20103;-76
2021/10/05 01:31:19;;;;;;;;;;;;;;;6.19;65.33;102207.97;4890327;29;19955;-76
2021/10/05 01:33:44;;;;;;;;;;;;;;;6.27;65.32;102231.63;4889087;29;19924;-75
2021/10/05 01:36:10;;;;;;;;;;;;;;;6.24;65.66;102228.88;4883102;29;19930;-76
2021/10/05 01:38:35;;;;;;;;;;;;;;;6.18;65.68;102232.06;4864023;29;20112;-78
2021/10/05 01:41:01;;;;;;;;;;;;;;;6.12;65.86;102229.16;4875655;29;20018;-76
2021/10/05 01:43:26;;;;;;;;;;;;;;;6.05;65.74;102232.28;4862107;29;19930;-77
2021/10/05 01:45:52;;;;;;;;;;;;;;;5.95;65.17;102228.34;4869435;29;19927;-77
2021/10/05 01:48:18;;;;;;;;;;;;;;;5.90;66.09;102229.81;4879746;29;19923;-77
2021/10/05 01:50:43;;;;;;;;;;;;;;;5.87;65.66;102223.69;4881355;29;19923;-78
2021/10/05 01:53:09;;;;;;;;;;;;;;;5.82;65.17;102229.44;4891955;29;19928;-77
2021/10/05 01:55:34;;;;;;;;;;;;;;;5.77;65.18;102228.31;4892682;29;20051;-77
2021/10/05 01:58:00;;;;;;;;;;;;;;;5.59;64.67;102231.75;4891137;29;19923;-77
2021/10/05 02:00:26;;;;;;;;;;;;;;;5.54;66.20;102231.50;4889223;29;19938;-75
2021/10/05 02:02:53;;;;;;;;;;;;;;;5.54;66.08;102228.91;4896643;29;19920;-77
2021/10/05 02:05:19;;;;;;;;;;;;;;;5.45;65.82;102232.72;4899225;29;19920;-76
2021/10/05 02:07:44;;;;;;;;;;;;;;;5.30;65.88;102236.31;4884589;29;19991;-76
2021/10/05 02:10:10;;;;;;;;;;;;;;;5.21;66.20;102222.91;4893210;29;20000;-76
2021/10/05 02:12:35;;;;;;;;;;;;;;;5.15;65.93;102240.69;4885900;29;19983;-77
2021/10/05 02:15:01;;;;;;;;;;;;;;;5.03;66.12;102230.59;4883440;29;19931;-75
2021/10/05 02:17:26;;;;;;;;;;;;;;;4.93;67.08;102239.56;4887141;29;19949;-76
2021/10/05 02:19:52;;;;;;;;;;;;;;;5.02;67.25;102239.16;4873128;29;19931;-76
2021/10/05 02:22:17;;;;;;;;;;;;;;;5.07;66.93;102243.75;4889516;29;19924;-75
2021/10/05 02:24:44;;;;;;;;;;;;;;;5.15;67.29;102243.25;4888981;29;19995;-77
2021/10/05 02:27:13;;;;;;;;;;;;;;;5.22;66.63;102241.06;4888441;29;19932;-76
2021/10/05 02:29:40;;;;;;;;;;;;;;;5.36;67.38;102238.31;4883095;29;20003;-75
2021/10/05 02:32:06;;;;;;;;;;;;;;;5.48;67.61;102240.63;4882702;29;19928;-77
2021/10/05 02:34:32;;;;;;;;;;;;;;;5.58;67.12;102242.91;4880843;29;19927;-79
2021/10/05 02:36:58;;;;;;;;;;;;;;;5.54;66.40;102240.97;4887514;29;19928;-75
2021/10/05 02:39:24;;;;;;;;;;;;;;;5.63;67.26;102243.13;4888176;29;20404;-78
2021/10/05 02:41:50;;;;;;;;;;;;;;;5.74;66.60;102234.19;4875035;29;19935;-76
2021/10/05 02:44:15;;;;;;;;;;;;;;;5.85;67.03;102240.78;4880919;29;19923;-75
2021/10/05 02:46:41;;;;;;;;;;;;;;;5.95;66.92;102234.38;4899605;29;19911;-76
2021/10/05 02:49:07;;;;;;;;;;;;;;;6.03;66.54;102242.53;4874173;29;19943;-77
2021/10/05 02:51:33;;;;;;;;;;;;;;;6.08;65.95;102229.84;4883544;29;19927;-77
2021/10/05 02:53:58;;;;;;;;;;;;;;;6.12;66.44;102237.84;4883996;29;19950;-75
2021/10/05 02:56:24;;;;;;;;;;;;;;;6.20;66.70;102234.72;4894921;29;19923;-77
2021/10/05 02:58:49;;;;;;;;;;;;;;;6.25;65.87;102238.41;4877842;29;20534;-76
2021/10/05 03:01:15;;;;;;;;;;;;;;;6.15;66.22;102232.81;4878021;29;19923;-76
2021/10/05 03:03:40;;;;;;;;;;;;;;;6.16;66.53;102239.75;4888378;29;19974;-78
2021/10/05 03:06:06;;;;;;;;;;;;;;;6.18;66.29;102242.41;4886107;29;19931;-77
2021/10/05 03:08:32;;;;;;;;;;;;;;;6.25;66.19;102238.41;4879921;29;19928;-81
2021/10/05 03:10:58;;;;;;;;;;;;;;;6.31;66.24;102239.56;4875281;29;19972;-76
2021/10/05 03:13:24;;;;;;;;;;;;;;;6.33;66.09;102243.13;4878578;29;19924;-78
2021/10/05 03:15:49;;;;;;;;;;;;;;;6.26;65.66;102243.66;4877165;29;19934;-77
2021/10/05 03:18:15;;;;;;;;;;;;;;;6.09;65.55;102240.25;4860410;29;19923;-76
2021/10/05 03:20:40;;;;;;;;;;;;;;;6.06;66.31;102237.53;4889228;29;19935;-76
2021/10/05 03:23:06;;;;;;;;;;;;;;;6.12;66.27;102239.50;4880603;29;19916;-77
2021/10/05 03:25:31;;;;;;;;;;;;;;;6.13;65.27;102243.88;4897140;29;19936;-76
2021/10/05 03:27:57;;;;;;;;;;;;;;;5.93;66.06;102242.88;4898249;29;19979;-77
2021/10/05 03:30:23;;;;;;;;;;;;;;;5.88;66.76;102243.53;4898476;29;19943;-78
2021/10/05 03:32:48;;;;;;;;;;;;;;;5.76;65.74;102242.03;4898631;29;19940;-78
2021/10/05 03:35:14;;;;;;;;;;;;;;;5.68;67.11;102254.59;4898813;29;19916;-79
2021/10/05 03:37:40;;;;;;;;;;;;;;;5.63;66.90;102251.75;4882432;29;19987;-83
2021/10/05 03:40:06;;;;;;;;;;;;;;;5.68;67.75;102258.03;4879027;29;19924;-77
2021/10/05 03:42:32;;;;;;;;;;;;;;;5.71;67.34;102257.31;4875343;29;20146;-77
2021/10/05 03:44:58;;;;;;;;;;;;;;;5.74;68.23;102254.88;4874360;29;19973;-75
2021/10/05 03:47:23;;;;;;;;;;;;;;;5.89;68.15;102265.09;4875478;29;19924;-77
2021/10/05 03:49:50;;;;;;;;;;;;;;;6.09;67.90;102262.63;4875494;29;19934;-78
2021/10/05 03:52:16;;;;;;;;;;;;;;;6.24;67.95;102262.50;4886709;29;19924;-78
2021/10/05 03:54:42;;;;;;;;;;;;;;;6.40;67.82;102258.94;4897343;29;19931;-79
2021/10/05 03:57:08;;;;;;;;;;;;;;;6.52;67.11;102263.81;4898413;29;20020;-78
2021/10/05 03:59:34;;;;;;;;;;;;;;;6.64;67.02;102259.19;4898330;29;19932;-77
2021/10/05 04:01:59;;;;;;;;;;;;;;;6.69;67.16;102264.63;4880630;29;19967;-78
2021/10/05 04:04:25;;;;;;;;;;;;;;;6.72;67.00;102262.19;4874041;29;19930;-79
2021/10/05 04:06:51;;;;;;;;;;;;;;;6.78;67.24;102259.84;4859132;29;19931;-77
2021/10/05 04:09:19;;;;;;;;;;;;;;;6.83;67.02;102265.25;4859311;29;19989;-77
2021/10/05 04:11:47;;;;;;;;;;;;;;;6.86;66.67;102257.59;4875039;29;20459;-77
2021/10/05 04:14:13;;;;;;;;;;;;;;;6.93;66.42;102268.34;4873751;29;20272;-77
2021/10/05 04:16:38;;;;;;;;;;;;;;;6.79;65.91;102264.22;4876475;29;19928;-77
2021/10/05 04:19:04;;;;;;;;;;;;;;;6.72;66.60;102273.41;4878377;29;19968;-78
2021/10/05 04:21:29;;;;;;;;;;;;;;;6.62;66.78;102272.09;4860384;29;19924;-77
2021/10/05 04:23:57;;;;;;;;;;;;;;;6.68;67.32;102271.47;4848037;29;19923;-78
2021/10/05 04:26:38;;;;;;;;;;;;;;;6.72;66.77;102272.53;4881399;29;19938;-76
2021/10/05 04:29:03;;;;;;;;;;;;;;;6.77;66.59;102273.59;4878182;29;19923;-78
2021/10/05 04:31:29;;;;;;;;;;;;;;;6.76;65.65;102272.72;4879516;29;20003;-77
2021/10/05 04:34:01;;;;;;;;;;;;;;;6.74;66.17;102276.03;4878483;29;19930;-76
2021/10/05 04:36:34;;;;;;;;;;;;;;;6.77;67.08;102268.44;4881309;29;20026;-76
2021/10/05 04:39:00;;;;;;;;;;;;;;;6.86;66.30;102273.13;4883726;29;19963;-77
2021/10/05 04:41:31;;;;;;;;;;;;;;;6.98;67.29;102270.22;4863880;29;20014;-79
2021/10/05 04:43:56;;;;;;;;;;;;;;;7.03;65.73;102263.56;4880070;29;19923;-78
2021/10/05 04:46:22;;;;;;;;;;;;;;;7.04;66.30;102271.41;4877558;29;20509;-76
2021/10/05 04:48:47;;;;;;;;;;;;;;;6.91;66.16;102274.25;4848383;29;19983;-76
2021/10/05 04:51:22;;;;;;;;;;;;;;;6.83;66.69;102276.47;4865703;29;19923;-79
2021/10/05 04:54:19;;;;;;;;;;;;;;;7.06;67.24;102277.50;4860202;29;20444;-76
2021/10/05 04:56:45;;;;;;;;;;;;;;;7.11;67.39;102277.75;4847319;29;19931;-78
2021/10/05 04:59:11;;;;;;;;;;;;;;;7.23;67.48;102275.69;4878178;29;19928;-76
2021/10/05 05:01:39;;;;;;;;;;;;;;;7.23;66.18;102280.00;4879323;29;19962;-77
2021/10/05 05:04:08;;;;;;;;;;;;;;;7.22;67.24;102276.50;4879575;29;20026;-79
2021/10/05 05:06:38;;;;;;;;;;;;;;;7.29;67.15;102284.56;4862652;29;20292;-78
2021/10/05 05:09:05;;;;;;;;;;;;;;;7.28;66.97;102286.28;4878044;29;19934;-77
2021/10/05 05:11:30;;;;;;;;;;;;;;;7.37;67.69;102290.97;4879376;29;19927;-76
2021/10/05 05:13:56;;;;;;;;;;;;;;;7.44;66.23;102293.00;4878801;29;19930;-77
2021/10/05 05:16:24;;;;;;;;;;;;;;;7.48;67.00;102288.84;4862648;29;19931;-77
2021/10/05 05:18:50;;;;;;;;;;;;;;;7.41;66.79;102287.66;4879670;29;19965;-76
2021/10/05 05:21:16;;;;;;;;;;;;;;;7.36;66.49;102289.19;4864153;29;20403;-77
2021/10/05 05:23:41;;;;;;;;;;;;;;;7.31;67.26;102288.09;4879084;29;19923;-78
2021/10/05 05:26:07;;;;;;;;;;;;;;;7.32;67.70;102295.06;4882001;29;20038;-78
2021/10/05 05:28:32;;;;;;;;;;;;;;;7.30;66.96;102296.69;4879901;29;19928;-78
2021/10/05 05:30:58;;;;;;;;;;;;;;;7.42;68.44;102299.81;4881734;29;20404;-77
2021/10/05 05:33:26;;;;;;;;;;;;;;;7.52;67.75;102303.69;4876670;29;19988;-79
2021/10/05 05:35:51;;;;;;;;;;;;;;;7.62;67.35;102302.38;4880339;29;19923;-76
2021/10/05 05:38:22;;;;;;;;;;;;;;;7.64;67.85;102295.56;4887841;29;19934;-78
2021/10/05 05:40:48;;;;;;;;;;;;;;;7.60;67.27;102309.22;4852064;29;19938;-77
2021/10/05 05:43:14;;;;;;;;;;;;;;;7.55;67.68;102311.59;4878454;29;19923;-78
2021/10/05 05:45:39;;;;;;;;;;;;;;;7.62;68.34;102310.16;4884925;29;19928;-78
2021/10/05 05:48:07;;;;;;;;;;;;;;;7.62;68.40;102308.47;4899320;29;19927;-78
2021/10/05 05:50:33;;;;;;;;;;;;;;;7.77;68.61;102316.03;4900602;29;20002;-76
2021/10/05 05:52:58;;;;;;;;;;;;;;;7.84;68.20;102315.44;4886232;29;19935;-78
2021/10/05 05:55:24;;;;;;;;;;;;;;;7.92;67.69;102309.72;4860823;29;19995;-77
2021/10/05 05:57:51;;;;;;;;;;;;;;;7.90;67.60;102308.75;4860122;29;20281;-79
2021/10/05 06:00:18;;;;;;;;;;;;;;;7.82;67.66;102314.53;4875649;29;19985;-77
2021/10/05 06:02:44;;;;;;;;;;;;;;;7.91;68.20;102313.13;4876758;29;19928;-78
2021/10/05 06:05:10;;;;;;;;;;;;;;;8.08;68.28;102319.03;4877332;29;19935;-78
2021/10/05 06:07:35;;;;;;;;;;;;;;;8.07;67.94;102317.25;4877227;29;20014;-77
2021/10/05 06:10:01;;;;;;;;;;;;;;;8.31;68.82;102325.13;4874408;29;19954;-77
2021/10/05 06:12:38;;;;;;;;;;;;;;;8.49;68.45;102318.97;4876872;29;19923;-77
2021/10/05 06:15:04;;;;;;;;;;;;;;;8.37;67.55;102324.53;4881126;29;19953;-77
2021/10/05 06:17:31;;;;;;;;;;;;;;;8.38;67.47;102316.78;4876664;29;19951;-77
2021/10/05 06:19:56;;;;;;;;;;;;;;;8.43;68.12;102315.28;4874241;29;20022;-77
2021/10/05 06:22:22;;;;;;;;;;;;;;;8.62;68.33;102316.03;4873912;29;20018;-77
2021/10/05 06:24:47;;;;;;;;;;;;;;;8.67;68.02;102322.31;4873974;29;20376;-78
2021/10/05 06:27:17;;;;;;;;;;;;;;;8.80;68.27;102330.56;4874166;29;19928;-77
2021/10/05 06:29:43;;;;;;;;;;;;;;;9.05;67.53;102327.16;4858597;29;20443;-78
2021/10/05 06:32:09;;;;;;;;;;;;;;;8.99;67.33;102330.44;4875936;29;19955;-77
2021/10/05 06:34:38;;;;;;;;;;;;;;;9.06;68.12;102325.47;4858276;29;20073;-77
2021/10/05 06:37:06;;;;;;;;;;;;;;;9.09;66.98;102323.88;4874935;29;19928;-79
2021/10/05 06:39:31;;;;;;;;;;;;;;;8.99;67.72;102322.63;4875264;29;19987;-78
2021/10/05 06:41:57;;;;;;;;;;;;;;;9.16;67.42;102317.19;4874818;29;19927;-77
2021/10/05 06:44:23;;;;;;;;;;;;;;;9.31;67.17;102322.97;4874267;29;19928;-78
2021/10/05 06:46:49;;;;;;;;;;;;;;;9.48;67.20;102325.28;4875440;29;19967;-79
2021/10/05 06:49:17;;;;;;;;;;;;;;;9.36;66.36;102319.66;4874022;29;19925;-78
2021/10/05 06:51:43;;;;;;;;;;;;;;;9.33;66.62;102328.22;4858559;29;20301;-77
2021/10/05 06:54:08;;;;;;;;;;;;;;;9.31;66.37;102325.56;4873785;29;19931;-77
2021/10/05 06:56:34;;;;;;;;;;;;;;;9.21;66.91;102328.63;4887757;29;20292;-76
2021/10/05 06:59:00;;;;;;;;;;;;;;;9.23;67.02;102326.13;4878625;29;19938;-79
2021/10/05 07:01:26;;;;;;;;;;;;;;;9.26;66.85;102329.69;4846334;29;19924;-78
2021/10/05 07:03:51;;;;;;;;;;;;;;;9.48;66.97;102336.59;4860723;29;19923;-75
2021/10/05 07:06:22;;;;;;;;;;;;;;;9.58;67.61;102343.00;4859951;29;19930;-77
2021/10/05 07:09:10;;;;;;;;;;;;;;;9.64;66.40;102332.78;4872745;29;20026;-78
2021/10/05 07:11:39;;;;;;;;;;;;;;;9.64;66.84;102343.19;4873779;29;20307;-76
2021/10/05 07:14:05;;;;;;;;;;;;;;;9.73;66.84;102337.44;4869121;29;19924;-79
2021/10/05 07:16:31;;;;;;;;;;;;;;;9.98;66.05;102342.63;4873431;29;19923;-78
2021/10/05 07:18:57;;;;;;;;;;;;;;;10.21;66.35;102346.88;4873679;29;20652;-78
2021/10/05 07:21:23;;;;;;;;;;;;;;;10.36;65.50;102338.69;4874681;29;19923;-79
2021/10/05 07:23:49;;;;;;;;;;;;;;;10.31;64.90;102339.34;4858295;29;20391;-78
2021/10/05 07:26:15;;;;;;;;;;;;;;;10.51;65.92;102343.53;4872918;29;19927;-78
2021/10/05 07:28:41;;;;;;;;;;;;;;;10.54;65.07;102346.22;4864743;29;19934;-78
2021/10/05 07:31:09;;;;;;;;;;;;;;;10.71;65.40;102351.06;4874585;29;19930;-78
2021/10/05 07:33:35;;;;;;;;;;;;;;;10.82;63.88;102335.78;4858038;29;19927;-78
2021/10/05 07:36:00;;;;;;;;;;;;;;;10.83;64.59;102342.75;4876740;29;19955;-79
2021/10/05 07:38:26;;;;;;;;;;;;;;;10.85;64.48;102341.09;4893512;29;19916;-78
2021/10/05 07:40:51;;;;;;;;;;;;;;;10.80;62.89;102343.56;4896994;29;19931;-77
2021/10/05 07:43:23;;;;;;;;;;;;;;;10.69;63.28;102340.63;4890415;29;19931;-79
2021/10/05 07:45:53;;;;;;;;;;;;;;;10.70;64.52;102344.13;4859407;29;19931;-78
2021/10/05 07:48:18;;;;;;;;;;;;;;;10.77;64.08;102343.47;4873663;29;19923;-77
2021/10/05 07:50:44;;;;;;;;;;;;;;;10.85;63.22;102343.69;4881970;29;19928;-79
2021/10/05 07:53:10;;;;;;;;;;;;;;;10.81;63.02;102342.72;4875755;29;19927;-79
2021/10/05 07:55:35;;;;;;;;;;;;;;;10.97;64.00;102344.06;4875339;29;20037;-78
2021/10/05 07:58:07;;;;;;;;;;;;;;;11.09;62.73;102346.16;4872885;29;19964;-78
2021/10/05 08:00:38;;;;;;;;;;;;;;;10.93;62.20;102354.34;4842554;29;19931;-78
2021/10/05 08:03:23;;;;;;;;;;;;;;;10.80;62.64;102343.56;4858718;29;19931;-79
2021/10/05 08:05:48;;;;;;;;;;;;;;;10.98;63.19;102340.63;4875731;29;20319;-80
2021/10/05 08:08:15;;;;;;;;;;;;;;;11.15;62.09;102337.63;4874438;29;19923;-81
2021/10/05 08:10:42;;;;;;;;;;;;;;;11.39;62.70;102329.63;4871965;29;20055;-79
2021/10/05 08:13:08;;;;;;;;;;;;;;;11.42;61.70;102340.16;4887106;29;19924;-78
2021/10/05 08:15:34;;;;;;;;;;;;;;;11.53;62.07;102332.63;4873151;29;19934;-79
2021/10/05 08:18:00;;;;;;;;;;;;;;;11.50;60.71;102329.06;4873465;29;19948;-78
2021/10/05 08:20:25;;;;;;;;;;;;;;;11.69;61.91;102331.31;4871995;29;19924;-77
2021/10/05 08:22:51;;;;;;;;;;;;;;;11.91;61.41;102339.72;4872428;29;20440;-79
2021/10/05 08:25:16;;;;;;;;;;;;;;;11.99;61.00;102340.84;4874682;29;19935;-78
2021/10/05 08:27:43;;;;;;;;;;;;;;;12.07;60.70;102337.53;4872928;29;19932;-77
2021/10/05 08:30:10;;;;;;;;;;;;;;;12.36;60.13;102338.25;4843584;29;19978;-79
2021/10/05 08:32:35;;;;;;;;;;;;;;;12.37;59.88;102346.97;4873529;29;19959;-78
2021/10/05 08:35:01;;;;;;;;;;;;;;;12.33;59.02;102340.81;4874657;29;19932;-78
2021/10/05 08:37:28;;;;;;;;;;;;;;;12.37;58.85;102336.53;4875004;29;20043;-79
2021/10/05 08:39:53;;;;;;;;;;;;;;;12.42;59.34;102338.41;4873224;29;20022;-79
2021/10/05 08:42:20;;;;;;;;;;;;;;;12.52;58.49;102357.78;4873345;29;20385;-77
2021/10/05 08:44:46;;;;;;;;;;;;;;;12.62;59.30;102351.03;4873423;29;19923;-77
2021/10/05 08:47:12;;;;;;;;;;;;;;;12.62;58.38;102351.94;4874695;29;20292;-80
2021/10/05 08:49:37;;;;;;;;;;;;;;;12.79;58.05;102354.94;4874138;29;20281;-78
2021/10/05 08:52:03;;;;;;;;;;;;;;;12.74;58.54;102353.06;4874201;29;20026;-81
2021/10/05 08:54:29;;;;;;;;;;;;;;;12.73;57.45;102348.66;4872689;29;19924;-80
2021/10/05 08:56:54;;;;;;;;;;;;;;;12.85;57.95;102354.19;4872249;29;20365;-79
2021/10/05 08:59:20;;;;;;;;;;;;;;;12.91;57.47;102354.31;4858803;29;20324;-81
2021/10/05 09:01:47;;;;;;;;;;;;;;;12.78;56.81;102350.56;4875204;29;19924;-79
2021/10/05 09:04:13;;;;;;;;;;;;;;;12.61;56.28;102358.00;4873569;29;19932;-79
2021/10/05 09:06:40;;;;;;;;;;;;;;;12.56;57.37;102359.63;4873175;29;20303;-79
2021/10/05 09:09:06;;;;;;;;;;;;;;;12.51;57.15;102358.63;4879403;29;19924;-79
2021/10/05 09:11:49;;;;;;;;;;;;;;;12.72;57.00;102353.03;4861254;29;19991;-78
2021/10/05 09:14:15;;;;;;;;;;;;;;;12.97;56.11;102358.81;4875376;29;19983;-78
2021/10/05 09:16:40;;;;;;;;;;;;;;;12.93;56.25;102355.22;4860347;29;20046;-78
2021/10/05 09:19:06;;;;;;;;;;;;;;;12.87;55.75;102362.06;4873512;29;19996;-77
2021/10/05 09:21:39;;;;;;;;;;;;;;;12.65;55.51;102358.94;4877062;29;20001;-77
2021/10/05 09:24:07;;;;;;;;;;;;;;;12.35;55.16;102352.16;4875715;29;19966;-78
2021/10/05 09:26:36;;;;;;;;;;;;;;;12.50;56.47;102355.13;4888968;29;19930;-80
2021/10/05 09:29:07;;;;;;;;;;;;;;;12.54;55.45;102358.69;4879381;29;19947;-78
2021/10/05 09:31:45;;;;;;;;;;;;;;;12.50;55.24;102349.91;4898985;29;19942;-77
2021/10/05 09:34:10;;;;;;;;;;;;;;;12.52;55.75;102354.28;4889224;29;19951;-77
2021/10/05 09:36:36;;;;;;;;;;;;;;;12.53;55.21;102351.72;4877271;29;19928;-78
2021/10/05 09:39:01;;;;;;;;;;;;;;;12.54;54.67;102355.22;4876043;29;20455;-78
2021/10/05 09:41:28;;;;;;;;;;;;;;;12.54;55.08;102353.47;4876795;29;19935;-77
2021/10/05 09:44:03;;;;;;;;;;;;;;;12.69;55.85;102357.31;4882092;29;19924;-78
2021/10/05 09:46:30;;;;;;;;;;;;;;;12.77;54.63;102358.34;4849528;29;19984;-81
2021/10/05 09:49:00;;;;;;;;;;;;;;;12.58;54.70;102363.16;4879070;29;19924;-78
2021/10/05 09:51:26;;;;;;;;;;;;;;;12.59;55.53;102356.19;4859466;29;20022;-78
2021/10/05 09:53:52;;;;;;;;;;;;;;;12.70;55.09;102361.66;4875628;29;20055;-77
2021/10/05 09:56:19;;;;;;;;;;;;;;;12.82;55.32;102354.13;4874368;29;20031;-77
2021/10/05 09:58:44;;;;;;;;;;;;;;;12.89;55.40;102361.25;4874235;29;19928;-77
2021/10/05 10:01:09;;;;;;;;;;;;;;;12.93;54.59;102370.03;4859608;29;19924;-78
2021/10/05 10:03:36;;;;;;;;;;;;;;;13.00;53.98;102360.59;4876064;29;19928;-76
2021/10/05 10:06:02;;;;;;;;;;;;;;;13.10;54.87;102360.81;4874866;29;19924;-79
2021/10/05 10:08:31;;;;;;;;;;;;;;;13.15;54.26;102368.75;4874245;29;19924;-77
2021/10/05 10:10:57;;;;;;;;;;;;;;;13.00;53.38;102368.44;4874388;29;19923;-77
2021/10/05 10:13:23;;;;;;;;;;;;;;;12.90;54.03;102367.34;4875303;29;19958;-79
2021/10/05 10:15:50;;;;;;;;;;;;;;;12.65;53.40;102367.69;4874004;29;19967;-77
2021/10/05 10:18:17;;;;;;;;;;;;;;;12.80;54.85;102376.72;4873770;29;20311;-77
2021/10/05 10:20:44;;;;;;;;;;;;;;;12.61;53.60;102370.16;4873742;29;19928;-77
2021/10/05 10:23:18;;;;;;;;;;;;;;;12.58;54.67;102365.75;4874942;29;20415;-80
2021/10/05 10:26:11;;;;;;;;;;;;;;;12.70;53.99;102366.88;4875408;29;19967;-79
2021/10/05 10:28:40;;;;;;;;;;;;;;;12.70;54.16;102366.88;4873751;29;20357;-79
2021/10/05 10:31:29;;;;;;;;;;;;;;;12.60;53.66;102358.84;4860494;29;20088;-79
2021/10/05 10:33:55;;;;;;;;;;;;;;;12.80;54.35;102374.09;4874287;29;19923;-77
2021/10/05 10:36:31;;;;;;;;;;;;;;;12.81;54.19;102368.91;4875458;29;19934;-78
2021/10/05 10:39:13;;;;;;;;;;;;;;;12.51;53.23;102371.69;4874116;29;19923;-77
2021/10/05 10:42:07;;;;;;;;;;;;;;;12.23;54.17;102371.03;4875885;29;20381;-77
2021/10/05 10:44:37;;;;;;;;;;;;;;;12.19;54.62;102366.56;4834179;29;20307;-78
2021/10/05 10:47:07;;;;;;;;;;;;;;;12.31;55.15;102371.22;4873146;29;20443;-77
2021/10/05 10:49:32;;;;;;;;;;;;;;;12.33;54.82;102373.00;4876088;29;19920;-79
2021/10/05 10:51:58;;;;;;;;;;;;;;;12.21;54.20;102375.31;4874963;29;19935;-78
2021/10/05 10:54:26;;;;;;;;;;;;;;;12.22;54.77;102373.56;4874915;29;19924;-78
2021/10/05 10:57:01;;;;;;;;;;;;;;;12.19;54.41;102370.03;4874811;29;20022;-80
2021/10/05 10:59:27;;;;;;;;;;;;;;;12.14;54.69;102362.94;4875967;29;19974;-79
2021/10/05 11:01:53;;;;;;;;;;;;;;;12.25;54.79;102371.91;4867977;29;19947;-78
2021/10/05 11:04:19;;;;;;;;;;;;;;;12.32;54.42;102362.53;4877078;29;20412;-79
2021/10/05 11:06:49;;;;;;;;;;;;;;;12.23;53.71;102363.19;4877139;29;19924;-79
2021/10/05 11:09:15;;;;;;;;;;;;;;;12.16;54.92;102366.47;4877396;29;19990;-79
2021/10/05 11:11:49;;;;;;;;;;;;;;;12.18;54.33;102370.88;4872156;29;19923;-78
2021/10/05 11:14:19;;;;;;;;;;;;;;;12.19;54.61;102366.56;4858608;29;19923;-77
2021/10/05 11:16:53;;;;;;;;;;;;;;;12.05;54.42;102364.47;4876890;29;19928;-79
2021/10/05 11:19:18;;;;;;;;;;;;;;;12.04;54.61;102361.81;4876736;29;19923;-78
2021/10/05 11:22:10;;;;;;;;;;;;;;;12.12;55.06;102365.53;4881367;29;19944;-77
2021/10/05 11:24:37;;;;;;;;;;;;;;;12.18;54.36;102377.84;4887007;29;19991;-79
2021/10/05 11:27:07;;;;;;;;;;;;;;;12.03;54.57;102366.16;4875937;29;19924;-79
2021/10/05 11:29:44;;;;;;;;;;;;;;;11.99;54.73;102368.66;4872873;29;19924;-80
2021/10/05 11:32:13;;;;;;;;;;;;;;;12.02;54.61;102373.94;4858619;29;20280;-79
2021/10/05 11:34:40;;;;;;;;;;;;;;;12.08;54.39;102370.59;4859820;29;19931;-79
2021/10/05 11:37:07;;;;;;;;;;;;;;;12.05;54.40;102376.63;4872343;29;19928;-76
2021/10/05 11:39:33;;;;;;;;;;;;;;;12.02;55.28;102369.63;4843890;29;19924;-78
2021/10/05 11:42:01;;;;;;;;;;;;;;;12.19;54.99;102369.16;4874480;29;19924;-78
2021/10/05 11:44:28;;;;;;;;;;;;;;;12.30;54.65;102375.53;4869445;29;19928;-79
2021/10/05 11:47:04;;;;;;;;;;;;;;;12.30;54.17;102374.66;4873147;29;19924;-79
2021/10/05 11:49:56;;;;;;;;;;;;;;;12.27;54.66;102366.75;4873810;29;19931;-78
2021/10/05 11:52:42;;;;;;;;;;;;;;;12.11;53.85;102373.31;4860536;29;20017;-79
2021/10/05 11:55:13;;;;;;;;;;;;;;;11.91;54.54;102381.47;4842903;29;19924;-79
2021/10/05 11:57:41;;;;;;;;;;;;;;;11.85;54.66;102376.97;4875868;29;20075;-79
2021/10/05 12:00:08;;;;;;;;;;;;;;;11.96;55.00;102369.44;4875360;29;19928;-77
2021/10/05 12:02:41;;;;;;;;;;;;;;;11.97;54.74;102376.41;4858006;29;20010;-76
2021/10/05 12:05:08;;;;;;;;;;;;;;;11.93;54.15;102368.44;4840028;29;20368;-79
2021/10/05 12:07:37;;;;;;;;;;;;;;;11.81;53.87;102385.53;4873938;29;20030;-78
2021/10/05 12:10:04;;;;;;;;;;;;;;;11.78;54.01;102379.38;4872988;29;19959;-77
2021/10/05 12:12:31;;;;;;;;;;;;;;;11.67;54.10;102374.72;4872568;29;20372;-78
2021/10/05 12:15:00;;;;;;;;;;;;;;;11.58;54.07;102377.09;4873375;29;20447;-78
2021/10/05 12:17:27;;;;;;;;;;;;;;;11.46;53.84;102375.03;4873419;29;20396;-79
2021/10/05 12:19:54;;;;;;;;;;;;;;;11.36;53.88;102367.78;4874603;29;19924;-78
2021/10/05 12:22:24;;;;;;;;;;;;;;;11.35;54.41;102366.00;4872648;29;19978;-78
2021/10/05 12:25:00;;;;;;;;;;;;;;;11.44;54.30;102369.75;4856541;29;19968;-78
2021/10/05 12:27:26;;;;;;;;;;;;;;;11.52;53.91;102369.09;4857719;29;19924;-77
2021/10/05 12:29:55;;;;;;;;;;;;;;;11.51;53.40;102362.13;4874069;29;20023;-78
2021/10/05 12:32:34;;;;;;;;;;;;;;;11.51;54.12;102360.38;4874004;29;19952;-78
2021/10/05 12:35:00;;;;;;;;;;;;;;;11.41;53.36;102363.56;4879184;29;20305;-78
2021/10/05 12:37:29;;;;;;;;;;;;;;;11.33;53.59;102360.75;4879335;29;19928;-77
2021/10/05 12:39:58;;;;;;;;;;;;;;;11.38;53.96;102358.28;4871173;29;19935;-76
2021/10/05 12:42:35;;;;;;;;;;;;;;;11.34;53.36;102354.72;4873331;29;19939;-78
2021/10/05 12:45:01;;;;;;;;;;;;;;;11.35;53.42;102355.56;4877956;29;19928;-78